Time;durP1;ratioP1;P1;durP2;ratioP2;P2;SDS_P1;SDS_P2;PMS_P1;PMS_P2;Temp;Humidity;BMP_temperature;BMP_pressure;BME280_temperature;BME280_humidity;BME280_pressure;Samples;Min_cycle;Max_cycle;Signal;HPM_P1;HPM_P2
2023/11/17 00:00:39;;;;;;;6.85;3.13;;;4.30;99.90;;;;;;5067736;28;20754;-73
2023/11/17 00:03:05;;;;;;;5.18;2.53;;;4.30;99.90;;;;;;5067858;28;20059;-74
2023/11/17 00:05:31;;;;;;;4.88;2.70;;;4.30;99.90;;;;;;5066383;28;20036;-74
2023/11/17 00:07:56;;;;;;;5.70;2.78;;;4.20;99.90;;;;;;5067593;28;20032;-74
2023/11/17 00:10:22;;;;;;;7.90;2.60;;;4.20;99.90;;;;;;5069913;28;20614;-73
2023/11/17 00:12:48;;;;;;;4.72;2.60;;;4.30;99.90;;;;;;5069614;28;20153;-74
2023/11/17 00:15:14;;;;;;;4.38;2.50;;;4.50;99.90;;;;;;5070744;28;20050;-74
2023/11/17 00:17:40;;;;;;;7.20;3.35;;;4.50;99.90;;;;;;5073311;28;20016;-73
2023/11/17 00:20:07;;;;;;;6.60;3.08;;;4.50;99.90;;;;;;5073184;28;20070;-73
2023/11/17 00:22:32;;;;;;;6.63;2.60;;;4.40;99.90;;;;;;5073237;28;21840;-73
2023/11/17 00:24:58;;;;;;;4.82;2.40;;;4.10;99.90;;;;;;5074531;28;20036;-73
2023/11/17 00:27:24;;;;;;;4.97;2.67;;;4.00;99.90;;;;;;5071639;28;20024;-73
2023/11/17 00:29:49;;;;;;;4.75;1.92;;;4.20;99.90;;;;;;5072479;28;20024;-73
2023/11/17 00:32:15;;;;;;;3.72;1.88;;;4.20;99.90;;;;;;5072297;28;20032;-73
2023/11/17 00:34:41;;;;;;;5.43;2.72;;;4.10;99.90;;;;;;5074306;28;20040;-73
2023/11/17 00:37:09;;;;;;;6.28;3.13;;;4.00;99.90;;;;;;5071802;28;20042;-73
2023/11/17 00:39:38;;;;;;;4.13;2.30;;;4.10;99.90;;;;;;5072710;28;20027;-73
2023/11/17 00:42:04;;;;;;;4.93;2.50;;;4.40;99.90;;;;;;5074174;28;20032;-73
2023/11/17 00:44:30;;;;;;;6.55;2.50;;;4.40;99.90;;;;;;5073086;28;20050;-73
2023/11/17 00:46:56;;;;;;;5.43;2.60;;;4.30;99.90;;;;;;5073022;28;20023;-73
2023/11/17 00:49:23;;;;;;;4.38;2.60;;;4.20;99.90;;;;;;5072920;28;20067;-73
2023/11/17 00:51:49;;;;;;;6.15;2.35;;;4.30;99.90;;;;;;5073173;28;20116;-73
2023/11/17 00:54:15;;;;;;;7.43;2.88;;;4.30;99.90;;;;;;5072164;28;20032;-73
2023/11/17 00:56:41;;;;;;;5.40;2.90;;;4.20;99.90;;;;;;5073752;28;20159;-73
2023/11/17 00:59:11;;;;;;;6.05;2.33;;;4.10;99.90;;;;;;5071848;28;20036;-73
2023/11/17 01:01:40;;;;;;;5.68;2.47;;;3.90;99.90;;;;;;5072955;28;24514;-73
2023/11/17 01:04:06;;;;;;;5.50;2.35;;;3.90;99.90;;;;;;5072195;28;20057;-73
2023/11/17 01:06:31;;;;;;;6.15;2.72;;;4.00;99.90;;;;;;5073908;28;21451;-73
2023/11/17 01:08:57;;;;;;;5.70;2.80;;;4.10;99.90;;;;;;5071879;28;20036;-73
2023/11/17 01:11:23;;;;;;;5.85;3.17;;;4.10;99.90;;;;;;5074375;28;20039;-73
2023/11/17 01:13:49;;;;;;;5.53;2.72;;;4.10;99.90;;;;;;5074051;28;20183;-73
2023/11/17 01:16:16;;;;;;;6.10;2.92;;;4.10;99.90;;;;;;5071361;28;20036;-73
2023/11/17 01:18:42;;;;;;;6.40;2.60;;;3.90;99.90;;;;;;5071346;28;20050;-73
2023/11/17 01:21:08;;;;;;;4.75;2.40;;;4.20;99.90;;;;;;5074089;28;20036;-73
2023/11/17 01:23:34;;;;;;;5.30;2.85;;;4.00;99.90;;;;;;5073135;28;20523;-73
2023/11/17 01:25:59;;;;;;;6.18;2.58;;;3.90;99.90;;;;;;5071724;28;20048;-73
2023/11/17 01:28:25;;;;;;;5.18;2.75;;;4.00;99.90;;;;;;5072580;28;20033;-73
2023/11/17 01:30:51;;;;;;;6.80;3.10;;;4.10;99.90;;;;;;5072521;28;20032;-73
2023/11/17 01:33:16;;;;;;;4.65;2.63;;;4.20;99.90;;;;;;5074587;28;20036;-73
2023/11/17 01:35:43;;;;;;;5.32;2.65;;;4.20;99.90;;;;;;5072311;28;20474;-73
2023/11/17 01:38:11;;;;;;;6.88;3.17;;;4.20;99.90;;;;;;5072229;28;20140;-73
2023/11/17 01:40:37;;;;;;;5.85;3.28;;;4.20;99.90;;;;;;5073717;28;20541;-73
2023/11/17 01:43:11;;;;;;;7.43;3.38;;;4.30;99.90;;;;;;5072051;28;20386;-73
2023/11/17 01:45:37;;;;;;;6.18;3.00;;;4.50;99.90;;;;;;5072284;28;20036;-73
2023/11/17 01:48:03;;;;;;;5.35;3.03;;;4.50;99.90;;;;;;5072330;28;20379;-73
2023/11/17 01:50:28;;;;;;;8.38;3.67;;;4.20;99.90;;;;;;5071720;28;20067;-73
2023/11/17 01:52:55;;;;;;;7.00;3.20;;;4.10;99.90;;;;;;5072191;28;20039;-73
2023/11/17 01:55:21;;;;;;;8.40;3.78;;;4.10;99.90;;;;;;5070253;28;20520;-73
2023/11/17 01:57:48;;;;;;;5.97;2.55;;;4.10;99.90;;;;;;5072590;28;20036;-73
2023/11/17 02:00:14;;;;;;;6.95;3.35;;;4.20;99.90;;;;;;5072353;28;20078;-73
2023/11/17 02:02:45;;;;;;;6.22;3.30;;;4.00;99.90;;;;;;5070617;28;20549;-73
2023/11/17 02:05:17;;;;;;;7.18;2.92;;;3.80;99.90;;;;;;5072087;28;20362;-73
2023/11/17 02:08:17;;;;;;;5.57;2.97;;;3.90;99.90;;;;;;5073207;28;20405;-73
2023/11/17 02:10:55;;;;;;;5.72;2.97;;;4.10;99.90;;;;;;5076280;28;20512;-73
2023/11/17 02:13:25;;;;;;;5.97;3.00;;;4.30;99.90;;;;;;5077176;28;20098;-73
2023/11/17 02:15:57;;;;;;;7.70;3.47;;;4.00;99.90;;;;;;5076342;28;21096;-73
2023/11/17 02:18:24;;;;;;;6.47;2.78;;;4.20;99.90;;;;;;5075141;28;20378;-73
2023/11/17 02:20:53;;;;;;;8.20;3.13;;;4.50;99.90;;;;;;5076220;28;20026;-73
2023/11/17 02:23:20;;;;;;;8.05;3.30;;;4.60;99.90;;;;;;5074536;28;20497;-73
2023/11/17 02:26:17;;;;;;;5.65;2.97;;;4.60;99.90;;;;;;5075288;28;20547;-73
2023/11/17 02:28:59;;;;;;;6.13;3.25;;;4.60;99.90;;;;;;5074056;28;20393;-73
2023/11/17 02:31:32;;;;;;;8.65;3.45;;;4.50;99.90;;;;;;5075134;28;21098;-73
2023/11/17 02:34:03;;;;;;;10.25;4.28;;;4.40;99.90;;;;;;5074563;28;20035;-73
2023/11/17 02:36:32;;;;;;;5.78;3.20;;;4.50;99.90;;;;;;5076786;28;20036;-73
2023/11/17 02:39:21;;;;;;;8.38;3.10;;;4.60;99.90;;;;;;5076457;28;20077;-73
2023/11/17 02:41:56;;;;;;;4.75;2.63;;;4.20;99.90;;;;;;5076929;28;20035;-73
2023/11/17 02:44:28;;;;;;;5.68;3.15;;;4.10;99.90;;;;;;5076524;28;20036;-73
2023/11/17 02:47:03;;;;;;;6.82;3.58;;;4.10;99.90;;;;;;5074897;28;20512;-73
2023/11/17 02:49:34;;;;;;;6.07;3.15;;;4.20;99.90;;;;;;5075532;28;20116;-73
2023/11/17 02:52:15;;;;;;;6.65;3.28;;;3.90;99.90;;;;;;5076426;28;20119;-73
2023/11/17 02:54:41;;;;;;;5.45;3.03;;;4.00;99.90;;;;;;5076117;28;20405;-73
2023/11/17 02:57:07;;;;;;;5.85;4.13;;;3.90;99.90;;;;;;5073911;28;20037;-73
2023/11/17 02:59:35;;;;;;;7.85;2.88;;;3.90;99.90;;;;;;5074398;28;20032;-74
2023/11/17 03:02:05;;;;;;;7.22;3.67;;;3.90;99.90;;;;;;5076566;28;20448;-73
2023/11/17 03:04:32;;;;;;;12.95;3.30;;;3.90;99.90;;;;;;5076686;28;21403;-73
2023/11/17 03:07:01;;;;;;;6.93;2.95;;;4.30;99.90;;;;;;5073663;28;20032;-73
2023/11/17 03:09:29;;;;;;;5.25;2.92;;;4.20;99.90;;;;;;5074675;28;20035;-73
2023/11/17 03:11:59;;;;;;;7.28;2.97;;;4.10;99.90;;;;;;5075304;28;20027;-73
2023/11/17 03:14:25;;;;;;;6.55;3.28;;;4.00;99.90;;;;;;5074747;28;21553;-73
2023/11/17 03:16:55;;;;;;;8.88;3.13;;;4.00;99.90;;;;;;5074799;28;20528;-73
2023/11/17 03:19:23;;;;;;;5.07;2.97;;;4.10;99.90;;;;;;5076019;28;20039;-73
2023/11/17 03:21:50;;;;;;;7.88;3.30;;;4.10;99.90;;;;;;5074535;28;20051;-73
2023/11/17 03:24:20;;;;;;;5.63;3.20;;;4.20;99.90;;;;;;5076176;28;20039;-74
2023/11/17 03:26:55;;;;;;;7.30;3.47;;;4.20;99.90;;;;;;5075960;28;20036;-73
2023/11/17 03:29:22;;;;;;;6.75;3.63;;;4.20;99.90;;;;;;5074698;28;20118;-73
2023/11/17 03:31:49;;;;;;;5.45;2.42;;;4.20;99.90;;;;;;5075620;28;20028;-73
2023/11/17 03:34:31;;;;;;;8.68;3.05;;;4.20;99.90;;;;;;5074270;28;20101;-74
2023/11/17 03:37:04;;;;;;;8.50;2.90;;;4.20;99.90;;;;;;5075644;28;20036;-73
2023/11/17 03:39:42;;;;;;;8.18;3.28;;;4.40;99.90;;;;;;5074555;28;20071;-73
2023/11/17 03:42:12;;;;;;;6.85;2.85;;;4.30;99.90;;;;;;5074323;28;20058;-73
2023/11/17 03:44:38;;;;;;;6.50;3.17;;;4.30;99.90;;;;;;5071443;28;20035;-73
2023/11/17 03:47:06;;;;;;;5.88;2.97;;;4.40;99.90;;;;;;5072470;28;20036;-74
2023/11/17 03:49:33;;;;;;;5.03;2.50;;;4.50;99.90;;;;;;5076076;28;20040;-73
2023/11/17 03:52:00;;;;;;;6.18;3.00;;;4.40;99.90;;;;;;5074227;28;20036;-73
2023/11/17 03:54:26;;;;;;;6.97;3.15;;;4.30;99.90;;;;;;5074993;28;20051;-73
2023/11/17 03:56:52;;;;;;;6.43;2.85;;;4.20;99.90;;;;;;5074331;28;20075;-73
2023/11/17 03:59:19;;;;;;;5.07;2.50;;;4.20;99.90;;;;;;5074939;28;20101;-73
2023/11/17 04:01:45;;;;;;;7.32;3.15;;;4.20;99.90;;;;;;5075158;28;21288;-73
2023/11/17 04:04:11;;;;;;;6.90;3.25;;;4.10;99.90;;;;;;5068815;28;20032;-73
2023/11/17 04:06:37;;;;;;;9.07;3.47;;;4.20;99.90;;;;;;5066246;28;20035;-73
2023/11/17 04:09:12;;;;;;;6.03;3.05;;;4.30;99.90;;;;;;5068735;28;20028;-74
2023/11/17 04:11:40;;;;;;;7.47;3.70;;;4.30;99.90;;;;;;5069951;28;20700;-73
2023/11/17 04:14:07;;;;;;;5.20;2.85;;;4.10;99.90;;;;;;5068923;28;20044;-73
2023/11/17 04:16:34;;;;;;;6.82;2.92;;;4.00;99.90;;;;;;5065805;28;20028;-74
2023/11/17 04:19:00;;;;;;;6.05;3.35;;;4.00;99.90;;;;;;5066862;28;20067;-74
2023/11/17 04:21:26;;;;;;;5.07;2.75;;;4.00;99.90;;;;;;5066748;28;20062;-73
2023/11/17 04:23:52;;;;;;;5.85;3.00;;;3.90;99.90;;;;;;5068577;28;20036;-73
2023/11/17 04:26:18;;;;;;;6.10;3.22;;;3.90;99.90;;;;;;5069827;28;20544;-73
2023/11/17 04:28:44;;;;;;;6.63;2.53;;;4.20;99.90;;;;;;5069472;28;20035;-73
2023/11/17 04:31:10;;;;;;;5.20;3.05;;;4.50;99.90;;;;;;5069468;28;20024;-73
2023/11/17 04:33:36;;;;;;;6.85;3.10;;;4.50;99.90;;;;;;5070216;28;20041;-73
2023/11/17 04:36:02;;;;;;;6.93;2.42;;;4.60;99.90;;;;;;5069161;28;20065;-73
2023/11/17 04:38:29;;;;;;;7.07;2.80;;;4.80;99.90;;;;;;5068798;28;20667;-73
2023/11/17 04:40:55;;;;;;;8.45;3.60;;;4.60;99.90;;;;;;5071266;28;20035;-73
2023/11/17 04:43:21;;;;;;;6.95;3.60;;;4.20;99.90;;;;;;5068113;28;20879;-73
2023/11/17 04:45:48;;;;;;;7.28;3.08;;;4.00;99.90;;;;;;5069864;28;20020;-73
2023/11/17 04:48:16;;;;;;;7.57;2.92;;;4.00;99.90;;;;;;5070974;28;20634;-73
2023/11/17 04:50:42;;;;;;;5.63;2.70;;;4.20;99.90;;;;;;5068088;28;20143;-73
2023/11/17 04:53:08;;;;;;;5.10;2.33;;;4.40;99.90;;;;;;5069606;28;20043;-73
2023/11/17 04:55:34;;;;;;;6.40;2.63;;;4.60;99.90;;;;;;5070936;28;20543;-73
2023/11/17 04:58:03;;;;;;;9.63;2.47;;;4.60;99.90;;;;;;5068494;28;20039;-73
2023/11/17 05:00:31;;;;;;;5.97;2.88;;;4.50;99.90;;;;;;5067637;28;20036;-73
2023/11/17 05:03:00;;;;;;;6.03;2.35;;;4.50;99.90;;;;;;5066844;28;20167;-73
2023/11/17 05:05:27;;;;;;;6.85;3.75;;;4.60;99.90;;;;;;5066737;28;20075;-73
2023/11/17 05:07:53;;;;;;;4.20;2.58;;;4.60;99.90;;;;;;5065739;28;20121;-73
2023/11/17 05:10:19;;;;;;;5.68;2.75;;;4.60;99.90;;;;;;5065866;28;20047;-73
2023/11/17 05:12:48;;;;;;;4.97;2.00;;;4.60;99.90;;;;;;5068022;28;20031;-73
2023/11/17 05:15:15;;;;;;;6.88;2.60;;;4.40;99.90;;;;;;5065535;28;20177;-73
2023/11/17 05:17:44;;;;;;;6.55;2.80;;;4.50;99.90;;;;;;5065578;28;20646;-73
2023/11/17 05:20:12;;;;;;;6.88;2.53;;;4.50;99.90;;;;;;5066868;28;20035;-74
2023/11/17 05:22:39;;;;;;;9.55;3.03;;;4.50;99.90;;;;;;5066658;28;20039;-73
2023/11/17 05:25:06;;;;;;;6.70;2.75;;;4.50;99.90;;;;;;5065740;28;22479;-73
2023/11/17 05:27:36;;;;;;;6.40;2.47;;;4.30;99.90;;;;;;5068714;28;20040;-73
2023/11/17 05:30:06;;;;;;;4.97;2.45;;;4.10;99.90;;;;;;5065355;28;20039;-73
2023/11/17 05:32:32;;;;;;;6.40;2.50;;;4.00;99.90;;;;;;5066179;28;20059;-74
2023/11/17 05:34:58;;;;;;;5.60;2.45;;;4.00;99.90;;;;;;5065614;28;20126;-73
2023/11/17 05:37:25;;;;;;;5.53;2.97;;;4.10;99.90;;;;;;5065516;28;20462;-73
2023/11/17 05:39:51;;;;;;;5.80;2.58;;;4.00;99.90;;;;;;5065729;28;20043;-74
2023/11/17 05:42:16;;;;;;;6.35;2.60;;;3.80;99.90;;;;;;5065813;28;20494;-73
2023/11/17 05:44:42;;;;;;;6.18;2.63;;;3.80;99.90;;;;;;5068187;28;20032;-73
2023/11/17 05:47:08;;;;;;;4.28;1.95;;;3.80;99.90;;;;;;5068361;28;20038;-73
2023/11/17 05:49:41;;;;;;;4.93;2.90;;;3.80;99.90;;;;;;5068728;28;20040;-73
2023/11/17 05:52:10;;;;;;;5.32;2.70;;;4.00;99.90;;;;;;5069680;28;20028;-73
2023/11/17 05:54:45;;;;;;;5.75;3.05;;;3.80;99.90;;;;;;5069348;28;20040;-73
2023/11/17 05:57:12;;;;;;;7.18;2.90;;;3.60;99.90;;;;;;5066872;28;20071;-74
2023/11/17 05:59:39;;;;;;;5.28;2.55;;;3.50;99.90;;;;;;5070905;28;20558;-73
2023/11/17 06:02:07;;;;;;;9.38;3.70;;;3.80;99.90;;;;;;5068855;28;20075;-74
2023/11/17 06:04:34;;;;;;;6.28;3.63;;;3.50;99.90;;;;;;5069404;28;20386;-73
2023/11/17 06:07:00;;;;;;;7.28;3.40;;;3.40;99.90;;;;;;5068367;28;20051;-74
2023/11/17 06:09:27;;;;;;;6.47;2.90;;;3.20;99.90;;;;;;5070889;28;20036;-73
2023/11/17 06:11:55;;;;;;;4.75;2.47;;;3.90;99.90;;;;;;5069760;28;20059;-74
2023/11/17 06:14:24;;;;;;;6.28;3.08;;;4.10;99.90;;;;;;5068237;28;20036;-73
2023/11/17 06:16:53;;;;;;;4.28;2.33;;;4.20;99.90;;;;;;5069982;28;20040;-73
2023/11/17 06:19:19;;;;;;;9.52;2.60;;;4.40;99.90;;;;;;5067901;28;20056;-74
2023/11/17 06:21:46;;;;;;;4.88;2.35;;;4.80;99.90;;;;;;5071950;28;20034;-74
2023/11/17 06:24:14;;;;;;;4.93;2.65;;;5.00;99.90;;;;;;5071687;28;20135;-73
2023/11/17 06:26:45;;;;;;;6.85;3.30;;;4.90;99.90;;;;;;5067967;28;20056;-73
2023/11/17 06:29:14;;;;;;;7.60;2.50;;;5.00;99.90;;;;;;5067060;28;20139;-73
2023/11/17 06:31:44;;;;;;;5.43;2.60;;;5.10;99.90;;;;;;5068879;28;20138;-73
2023/11/17 06:34:10;;;;;;;3.83;2.13;;;4.80;99.90;;;;;;5070278;28;20024;-73
2023/11/17 06:36:39;;;;;;;4.57;2.00;;;4.30;99.90;;;;;;5068484;28;20036;-73
2023/11/17 06:39:14;;;;;;;4.50;2.35;;;4.40;99.90;;;;;;5068608;28;20042;-73
2023/11/17 06:41:41;;;;;;;6.18;2.70;;;4.60;99.90;;;;;;5069059;28;20815;-73
2023/11/17 06:44:09;;;;;;;3.55;1.80;;;5.00;99.90;;;;;;5070440;28;20047;-73
2023/11/17 06:46:35;;;;;;;4.85;2.05;;;5.20;99.90;;;;;;5068202;28;20024;-73
2023/11/17 06:49:04;;;;;;;5.03;2.10;;;5.60;99.90;;;;;;5074192;28;20509;-74
2023/11/17 06:51:31;;;;;;;5.25;2.15;;;5.50;99.90;;;;;;5069527;28;20090;-74
2023/11/17 06:53:57;;;;;;;4.60;1.80;;;5.50;99.90;;;;;;5065660;28;20028;-73
2023/11/17 06:56:23;;;;;;;4.55;2.10;;;5.50;99.90;;;;;;5067494;28;20058;-73
2023/11/17 06:58:48;;;;;;;4.72;2.00;;;5.50;99.90;;;;;;5069352;28;20646;-73
2023/11/17 07:01:15;;;;;;;4.50;1.63;;;5.50;99.90;;;;;;5067429;28;20024;-74
2023/11/17 07:03:42;;;;;;;4.10;2.00;;;5.70;99.90;;;;;;5065806;28;20099;-74
2023/11/17 07:06:08;;;;;;;4.70;1.98;;;5.80;99.90;;;;;;5068830;28;20038;-74
2023/11/17 07:08:34;;;;;;;4.40;2.10;;;5.70;99.90;;;;;;5066784;28;20031;-74
2023/11/17 07:11:00;;;;;;;5.13;2.10;;;5.60;99.90;;;;;;5067037;28;20036;-74
2023/11/17 07:13:26;;;;;;;3.40;1.67;;;5.40;99.90;;;;;;5068827;28;20093;-74
2023/11/17 07:15:53;;;;;;;5.32;1.80;;;5.40;99.90;;;;;;5063725;28;20036;-74
2023/11/17 07:18:20;;;;;;;5.57;2.00;;;5.60;99.90;;;;;;5067465;28;20416;-74
2023/11/17 07:20:47;;;;;;;6.00;2.08;;;5.80;99.90;;;;;;5067663;28;20071;-74
2023/11/17 07:23:12;;;;;;;3.42;1.67;;;6.00;99.90;;;;;;5066131;28;20051;-75
2023/11/17 07:25:45;;;;;;;4.13;1.80;;;5.90;99.90;;;;;;5064598;28;20770;-74
2023/11/17 07:28:12;;;;;;;6.50;1.90;;;6.10;99.90;;;;;;5066958;28;20115;-75
2023/11/17 07:30:38;;;;;;;5.35;1.48;;;6.20;99.90;;;;;;5065107;28;20471;-75
2023/11/17 07:33:05;;;;;;;4.53;1.85;;;6.30;99.90;;;;;;5064651;28;20109;-74
2023/11/17 07:35:31;;;;;;;4.43;1.90;;;6.30;99.90;;;;;;5066752;28;20058;-74
2023/11/17 07:37:57;;;;;;;4.03;1.98;;;6.20;99.90;;;;;;5068174;28;20060;-74
2023/11/17 07:40:22;;;;;;;8.38;2.50;;;6.20;99.90;;;;;;5066747;28;20594;-75
2023/11/17 07:42:49;;;;;;;3.55;1.80;;;6.10;99.90;;;;;;5067166;28;20600;-74
2023/11/17 07:45:17;;;;;;;3.58;1.65;;;6.00;99.90;;;;;;5068618;28;20036;-74
2023/11/17 07:47:43;;;;;;;5.20;1.60;;;6.00;99.90;;;;;;5066825;28;20036;-74
2023/11/17 07:50:13;;;;;;;5.85;2.10;;;6.20;99.90;;;;;;5066839;28;20043;-74
2023/11/17 07:52:43;;;;;;;4.28;1.90;;;6.30;99.90;;;;;;5067759;28;21217;-73
2023/11/17 07:55:09;;;;;;;6.20;1.83;;;6.50;99.90;;;;;;5069086;28;20049;-74
2023/11/17 07:57:35;;;;;;;12.02;2.15;;;6.50;99.90;;;;;;5069143;28;20090;-74
2023/11/17 08:00:05;;;;;;;4.25;1.90;;;6.60;99.90;;;;;;5067608;28;20097;-74
2023/11/17 08:02:31;;;;;;;5.32;1.77;;;6.60;99.90;;;;;;5066452;28;20579;-73
2023/11/17 08:04:57;;;;;;;4.15;1.92;;;6.70;99.90;;;;;;5070101;28;20052;-74
2023/11/17 08:07:22;;;;;;;4.95;1.60;;;6.80;99.90;;;;;;5071401;28;20402;-76
2023/11/17 08:09:48;;;;;;;5.13;1.80;;;6.80;99.90;;;;;;5071493;28;20515;-75
2023/11/17 08:12:16;;;;;;;5.07;2.30;;;6.60;99.90;;;;;;5070405;28;20192;-75
2023/11/17 08:14:42;;;;;;;7.05;2.45;;;6.60;99.90;;;;;;5070448;28;20048;-75
2023/11/17 08:17:08;;;;;;;4.10;1.92;;;6.50;99.90;;;;;;5070115;28;20173;-75
2023/11/17 08:19:35;;;;;;;5.85;1.83;;;6.40;99.90;;;;;;5071990;28;20039;-75
2023/11/17 08:22:00;;;;;;;4.13;1.90;;;6.70;99.90;;;;;;5069452;28;20062;-73
2023/11/17 08:24:26;;;;;;;5.35;2.17;;;6.80;99.90;;;;;;5070754;28;20637;-75
2023/11/17 08:26:52;;;;;;;5.20;1.83;;;6.80;99.90;;;;;;5072418;28;20067;-75
2023/11/17 08:29:18;;;;;;;3.60;1.65;;;6.70;99.90;;;;;;5070469;28;20537;-75
2023/11/17 08:31:44;;;;;;;3.25;1.55;;;6.90;99.90;;;;;;5069475;28;20028;-75
2023/11/17 08:34:09;;;;;;;5.05;1.60;;;6.90;99.90;;;;;;5069960;28;20036;-78
2023/11/17 08:36:35;;;;;;;4.95;1.70;;;7.10;99.90;;;;;;5068213;28;20111;-75
2023/11/17 08:39:02;;;;;;;6.00;2.22;;;7.00;99.90;;;;;;5068902;28;20038;-75
2023/11/17 08:41:27;;;;;;;3.45;1.52;;;7.10;99.90;;;;;;5067190;28;20032;-74
2023/11/17 08:43:56;;;;;;;3.33;1.55;;;7.00;99.90;;;;;;5066850;28;20043;-74
2023/11/17 08:46:23;;;;;;;4.45;1.83;;;7.00;99.90;;;;;;5066419;28;20032;-74
2023/11/17 08:48:51;;;;;;;3.92;2.25;;;7.10;99.90;;;;;;5067065;28;20781;-75
2023/11/17 08:51:17;;;;;;;4.75;1.92;;;7.10;99.90;;;;;;5069681;28;20028;-75
2023/11/17 08:53:42;;;;;;;3.05;1.42;;;7.00;99.90;;;;;;5073122;28;20058;-77
2023/11/17 08:56:08;;;;;;;4.00;1.95;;;7.00;99.90;;;;;;5072883;28;20040;-77
2023/11/17 08:58:34;;;;;;;3.63;1.50;;;7.00;99.90;;;;;;5072598;28;20040;-75
2023/11/17 09:01:01;;;;;;;4.15;2.10;;;6.90;99.90;;;;;;5076341;28;20561;-75
2023/11/17 09:03:28;;;;;;;5.38;1.83;;;6.90;99.90;;;;;;5075724;28;20058;-75
2023/11/17 09:05:54;;;;;;;7.60;2.30;;;7.10;99.90;;;;;;5075047;28;20024;-75
2023/11/17 09:08:20;;;;;;;30.45;16.73;;;7.10;99.90;;;;;;5075748;28;20073;-75
2023/11/17 09:10:47;;;;;;;10.52;4.82;;;7.00;99.90;;;;;;5076091;28;20420;-74
2023/11/17 09:13:13;;;;;;;9.73;5.03;;;7.10;99.90;;;;;;5071212;28;20094;-77
2023/11/17 09:15:39;;;;;;;6.72;2.63;;;7.30;99.90;;;;;;5076225;28;20127;-76
2023/11/17 09:18:07;;;;;;;5.28;1.98;;;7.20;99.90;;;;;;5073756;28;20036;-77
2023/11/17 09:20:34;;;;;;;5.25;2.00;;;7.20;99.90;;;;;;5073846;28;20924;-75
2023/11/17 09:23:00;;;;;;;3.90;1.83;;;7.40;99.90;;;;;;5073896;28;20036;-75
2023/11/17 09:25:26;;;;;;;3.58;1.20;;;7.30;99.90;;;;;;5073530;28;20032;-73
2023/11/17 09:27:53;;;;;;;5.03;1.63;;;7.10;99.90;;;;;;5073428;28;20028;-75
2023/11/17 09:30:21;;;;;;;4.18;1.88;;;7.30;99.90;;;;;;5072334;28;20056;-74
2023/11/17 09:32:55;;;;;;;3.58;1.67;;;7.40;99.90;;;;;;5073944;28;20451;-75
2023/11/17 09:35:21;;;;;;;3.28;1.63;;;7.60;99.90;;;;;;5073022;28;20669;-74
2023/11/17 09:37:53;;;;;;;3.58;1.10;;;7.70;99.90;;;;;;5072953;28;20016;-75
2023/11/17 09:40:21;;;;;;;4.00;2.00;;;7.80;99.90;;;;;;5072942;28;20513;-74
2023/11/17 09:42:52;;;;;;;4.00;1.60;;;7.70;99.90;;;;;;5073768;28;20012;-75
2023/11/17 09:45:26;;;;;;;4.57;1.73;;;7.80;99.90;;;;;;5073276;28;20031;-75
2023/11/17 09:47:53;;;;;;;4.60;2.08;;;7.90;99.90;;;;;;5071977;28;20359;-75
2023/11/17 09:50:26;;;;;;;4.88;2.67;;;7.90;99.90;;;;;;5070118;28;20020;-75
2023/11/17 09:52:53;;;;;;;3.72;1.45;;;7.70;99.90;;;;;;5066834;28;20091;-74
2023/11/17 09:55:27;;;;;;;6.15;1.67;;;7.50;99.90;;;;;;5064801;28;20035;-75
2023/11/17 09:57:55;;;;;;;;;;;7.80;99.90;;;;;;5065593;28;20531;-75
2023/11/17 10:00:27;;;;;;;6.50;1.52;;;7.80;99.90;;;;;;5064922;28;19958;-76
2023/11/17 10:02:55;;;;;;;3.33;1.55;;;7.70;99.90;;;;;;5065992;28;20524;-74
2023/11/17 10:05:26;;;;;;;4.28;1.42;;;7.90;99.90;;;;;;5065921;28;20028;-74
2023/11/17 10:07:58;;;;;;;3.83;1.58;;;8.10;99.90;;;;;;5064834;28;20059;-75
2023/11/17 10:10:26;;;;;;;3.20;1.50;;;8.20;99.90;;;;;;5065102;28;20036;-75
2023/11/17 10:12:56;;;;;;;3.53;1.55;;;8.40;99.90;;;;;;5066487;28;20036;-74
2023/11/17 10:15:25;;;;;;;2.85;1.20;;;8.50;99.90;;;;;;5064380;28;20055;-74
2023/11/17 10:17:59;;;;;;;4.70;1.50;;;8.60;99.90;;;;;;5063598;28;20036;-74
2023/11/17 10:20:26;;;;;;;4.85;1.60;;;8.80;99.90;;;;;;5066220;28;20032;-75
2023/11/17 10:22:54;;;;;;;2.45;1.35;;;8.80;99.90;;;;;;5065156;28;20034;-74
2023/11/17 10:25:23;;;;;;;2.88;1.30;;;9.00;99.90;;;;;;5065438;28;20055;-75
2023/11/17 10:27:50;;;;;;;2.50;0.98;;;9.20;99.90;;;;;;5065618;28;20044;-75
2023/11/17 10:30:24;;;;;;;3.03;1.33;;;9.40;99.90;;;;;;5066092;28;20032;-75
2023/11/17 10:33:13;;;;;;;;;;;9.50;99.90;;;;;;5068345;28;20035;-77
2023/11/17 10:35:43;;;;;;;2.90;0.68;;;9.70;99.90;;;;;;5068099;28;19931;-75
2023/11/17 10:38:14;;;;;;;3.47;1.52;;;9.80;99.90;;;;;;5068365;28;20028;-75
2023/11/17 10:40:41;;;;;;;2.80;1.13;;;10.10;99.90;;;;;;5069817;28;20042;-74
2023/11/17 10:43:08;;;;;;;1.33;0.65;;;10.20;99.90;;;;;;5069824;28;20130;-74
2023/11/17 10:45:37;;;;;;;2.75;0.95;;;10.60;99.20;;;;;;5067792;28;20115;-76
2023/11/17 10:48:06;;;;;;;7.22;1.48;;;10.30;99.30;;;;;;5067127;28;20032;-75
2023/11/17 10:50:34;;;;;;;2.10;1.00;;;10.30;99.60;;;;;;5070271;28;21101;-75
2023/11/17 10:53:20;;;;;;;3.40;1.30;;;10.20;99.50;;;;;;5068251;28;20027;-76
2023/11/17 10:55:53;;;;;;;5.55;1.50;;;10.30;99.60;;;;;;5067904;28;20036;-75
2023/11/17 10:58:19;;;;;;;3.10;1.35;;;10.50;99.50;;;;;;5069088;28;20108;-74
2023/11/17 11:00:48;;;;;;;3.88;2.05;;;10.60;99.60;;;;;;5069157;28;20031;-76
2023/11/17 11:03:15;;;;;;;4.35;2.13;;;10.60;99.70;;;;;;5068377;28;20528;-75
2023/11/17 11:05:43;;;;;;;6.55;2.30;;;10.90;98.70;;;;;;5068100;28;20051;-76
2023/11/17 11:08:22;;;;;;;3.65;1.77;;;11.10;99.40;;;;;;5069268;28;20735;-74
2023/11/17 11:10:56;;;;;;;3.65;1.65;;;10.90;98.60;;;;;;5069467;28;20031;-76
2023/11/17 11:13:28;;;;;;;3.55;1.42;;;10.80;98.90;;;;;;5070043;28;20039;-75
2023/11/17 11:16:24;;;;;;;3.20;1.27;;;10.80;98.80;;;;;;5067166;28;20047;-74
2023/11/17 11:18:53;;;;;;;3.35;1.27;;;11.00;98.00;;;;;;5064286;28;20152;-75
2023/11/17 11:21:21;;;;;;;4.10;1.40;;;11.20;98.90;;;;;;5066745;28;20028;-74
2023/11/17 11:23:50;;;;;;;2.92;1.35;;;11.30;98.90;;;;;;5067595;28;20148;-75
2023/11/17 11:26:17;;;;;;;2.78;1.10;;;11.60;97.80;;;;;;5068763;28;20584;-76
2023/11/17 11:28:45;;;;;;;5.70;1.35;;;11.60;98.10;;;;;;5068347;28;20032;-75
2023/11/17 11:31:12;;;;;;;4.00;1.10;;;11.80;97.80;;;;;;5066946;28;20024;-75
2023/11/17 11:33:38;;;;;;;2.97;1.30;;;11.80;97.60;;;;;;5069407;28;20043;-77
2023/11/17 11:36:05;;;;;;;2.53;0.98;;;11.80;97.80;;;;;;5069264;28;21121;-75
2023/11/17 11:38:32;;;;;;;3.33;1.20;;;11.80;97.00;;;;;;5067347;28;20056;-79
2023/11/17 11:40:58;;;;;;;2.75;0.90;;;11.90;97.10;;;;;;5068233;28;20059;-76
2023/11/17 11:43:28;;;;;;;3.42;1.25;;;12.10;97.00;;;;;;5067246;28;20032;-75
2023/11/17 11:45:55;;;;;;;2.50;0.90;;;12.30;97.10;;;;;;5066812;28;20031;-75
2023/11/17 11:48:24;;;;;;;2.78;0.85;;;12.20;96.00;;;;;;5061250;28;20035;-75
2023/11/17 11:50:54;;;;;;;1.58;0.60;;;12.20;96.20;;;;;;5067402;28;20507;-75
2023/11/17 11:53:38;;;;;;;3.08;1.40;;;12.70;95.90;;;;;;5067612;28;20035;-75
2023/11/17 11:56:11;;;;;;;2.05;0.80;;;12.70;95.80;;;;;;5068000;28;20044;-74
2023/11/17 11:58:56;;;;;;;6.57;2.10;;;12.50;95.70;;;;;;5066975;28;23428;-76
2023/11/17 12:01:23;;;;;;;2.60;0.85;;;12.50;94.60;;;;;;5067236;28;20501;-75
2023/11/17 12:03:57;;;;;;;1.73;0.60;;;12.60;94.80;;;;;;5066534;28;20056;-75
2023/11/17 12:06:28;;;;;;;0.77;0.38;;;12.60;95.00;;;;;;5067574;28;20624;-76
2023/11/17 12:08:59;;;;;;;2.08;0.57;;;12.70;93.70;;;;;;5067783;28;20127;-75
2023/11/17 12:11:39;;;;;;;0.73;0.30;;;12.70;93.70;;;;;;5066666;28;20032;-74
2023/11/17 12:14:09;;;;;;;1.13;0.30;;;12.70;93.90;;;;;;5066576;28;20028;-77
2023/11/17 12:16:38;;;;;;;0.70;0.40;;;12.70;93.70;;;;;;5066122;28;21134;-75
2023/11/17 12:19:08;;;;;;;1.38;0.30;;;12.90;93.50;;;;;;5066894;28;20429;-74
2023/11/17 12:21:40;;;;;;;1.85;0.52;;;13.00;92.90;;;;;;5064647;28;20036;-75
2023/11/17 12:24:08;;;;;;;1.15;0.40;;;12.90;93.00;;;;;;5064304;28;20121;-75
2023/11/17 12:26:36;;;;;;;2.85;0.40;;;13.00;93.00;;;;;;5066042;28;20028;-76
2023/11/17 12:29:01;;;;;;;0.70;0.38;;;13.10;93.00;;;;;;5067080;28;20715;-75
2023/11/17 12:31:29;;;;;;;0.70;0.40;;;13.00;92.30;;;;;;5065479;28;20043;-75
2023/11/17 12:33:55;;;;;;;1.08;0.40;;;13.00;92.80;;;;;;5065988;28;20039;-74
2023/11/17 12:36:22;;;;;;;0.45;0.28;;;13.00;92.80;;;;;;5066979;28;20036;-75
2023/11/17 12:38:56;;;;;;;0.85;0.35;;;13.10;91.60;;;;;;5064256;28;20756;-75
2023/11/17 12:41:25;;;;;;;0.65;0.20;;;13.10;92.10;;;;;;5060884;28;20695;-75
2023/11/17 12:43:55;;;;;;;0.82;0.40;;;13.20;92.10;;;;;;5065394;28;20023;-75
2023/11/17 12:46:24;;;;;;;0.75;0.20;;;13.20;92.00;;;;;;5064376;28;20592;-75
2023/11/17 12:48:50;;;;;;;0.55;0.20;;;13.10;91.40;;;;;;5066617;28;20567;-75
2023/11/17 12:51:27;;;;;;;0.70;0.30;;;13.20;91.60;;;;;;5067154;28;20036;-75
2023/11/17 12:54:01;;;;;;;0.45;0.20;;;13.20;91.70;;;;;;5066141;28;20036;-75
2023/11/17 12:56:28;;;;;;;1.08;0.30;;;13.20;91.00;;;;;;5066310;28;20236;-75
2023/11/17 12:58:54;;;;;;;0.52;0.25;;;13.40;91.10;;;;;;5066788;28;20493;-75
2023/11/17 13:01:22;;;;;;;0.40;0.20;;;13.40;89.00;;;;;;5066466;28;20562;-74